Time;durP1;ratioP1;P1;durP2;ratioP2;P2;SDS_P1;SDS_P2;PMS_P1;PMS_P2;Temp;Humidity;BMP_temperature;BMP_pressure;BME280_temperature;BME280_humidity;BME280_pressure;Samples;Min_cycle;Max_cycle;Signal;HPM_P1;HPM_P2
2024/02/07 00:01:48;;;;;;;4.40;1.92;;;;;;;9.97;57.73;99130.59;10431569;28;20047;-59
2024/02/07 00:06:50;;;;;;;4.22;1.98;;;;;;;9.83;57.82;99130.72;10431406;28;20114;-59
2024/02/07 00:11:52;;;;;;;7.88;1.88;;;;;;;9.84;58.12;99102.84;10431400;28;20041;-59
2024/02/07 00:16:56;;;;;;;3.10;1.77;;;;;;;9.87;58.01;99105.25;10431735;28;20072;-59
2024/02/07 00:21:58;;;;;;;4.95;2.28;;;;;;;9.94;58.00;99102.09;10424052;28;20045;-59
2024/02/07 00:27:00;;;;;;;5.93;2.10;;;;;;;9.82;58.23;99110.78;10431395;28;20048;-59
2024/02/07 00:32:02;;;;;;;4.75;1.98;;;;;;;9.97;58.30;99108.88;10431624;28;20053;-59
2024/02/07 00:37:04;;;;;;;3.05;1.92;;;;;;;9.94;58.43;99094.25;10429103;28;20566;-59
2024/02/07 00:42:06;;;;;;;3.95;1.92;;;;;;;9.85;58.52;99091.47;10431167;28;20567;-59
2024/02/07 00:47:10;;;;;;;2.92;1.60;;;;;;;9.91;58.71;99083.19;10429311;28;20124;-59
2024/02/07 00:52:12;;;;;;;3.38;1.67;;;;;;;10.00;58.50;99085.13;10429099;28;20059;-60
2024/02/07 00:57:15;;;;;;;4.78;1.77;;;;;;;9.89;58.71;99072.03;10432690;28;20055;-59
2024/02/07 01:02:17;;;;;;;4.15;2.03;;;;;;;9.96;58.68;99047.13;10430525;28;20067;-59
2024/02/07 01:07:19;;;;;;;8.35;2.67;;;;;;;10.10;58.47;99057.41;10428708;28;20049;-59
2024/02/07 01:12:21;;;;;;;7.28;2.03;;;;;;;10.05;58.83;99072.59;10431680;28;20057;-59
2024/02/07 01:17:23;;;;;;;4.13;1.70;;;;;;;9.89;59.30;99044.09;10430199;28;20044;-59
2024/02/07 01:22:25;;;;;;;4.72;2.00;;;;;;;9.98;59.30;99056.53;10431775;28;20068;-60
2024/02/07 01:27:27;;;;;;;4.65;2.00;;;;;;;9.88;59.67;99052.06;10430634;28;20045;-59
2024/02/07 01:32:29;;;;;;;5.70;1.80;;;;;;;9.94;59.69;99035.94;10429781;28;20059;-59
2024/02/07 01:37:31;;;;;;;3.78;1.75;;;;;;;9.85;60.18;99013.94;10430315;28;20063;-59
2024/02/07 01:42:33;;;;;;;6.00;1.77;;;;;;;9.82;60.23;99024.59;10424792;28;20057;-59
2024/02/07 01:47:35;;;;;;;6.15;2.15;;;;;;;9.89;60.19;98996.28;10428317;28;20053;-59
2024/02/07 01:52:39;;;;;;;6.07;1.80;;;;;;;9.95;59.90;98986.19;10426145;28;20064;-59
2024/02/07 01:57:41;;;;;;;2.67;1.52;;;;;;;9.99;59.89;99002.50;10427960;28;20512;-59
2024/02/07 02:02:46;;;;;;;3.95;1.70;;;;;;;9.99;59.92;98986.84;10441886;28;20411;-59
2024/02/07 02:07:50;;;;;;;3.95;1.60;;;;;;;10.05;59.66;98991.63;10422839;28;20064;-59
2024/02/07 02:12:52;;;;;;;3.90;1.85;;;;;;;10.16;59.37;98982.06;10425870;28;20048;-59
2024/02/07 02:17:54;;;;;;;3.83;1.73;;;;;;;10.24;59.32;98976.25;10436273;28;20111;-60
2024/02/07 02:23:34;;;;;;;5.82;1.98;;;;;;;10.17;59.35;98964.59;10435982;28;20418;-59
2024/02/07 02:28:38;;;;;;;4.10;1.58;;;;;;;10.21;59.39;98976.50;10434911;28;20760;-59
2024/02/07 02:33:42;;;;;;;3.33;1.70;;;;;;;10.09;59.71;98973.00;10435849;28;20515;-60
2024/02/07 02:38:44;;;;;;;4.43;2.08;;;;;;;10.14;59.64;98965.66;10434926;28;20075;-59
2024/02/07 02:43:47;;;;;;;2.33;1.40;;;;;;;10.11;59.84;98954.59;10436344;28;20072;-59
2024/02/07 02:48:49;;;;;;;4.72;1.60;;;;;;;10.21;59.56;98947.75;10432585;28;20061;-59
2024/02/07 02:53:52;;;;;;;2.45;1.40;;;;;;;10.08;59.91;98924.31;10435916;28;20146;-59
2024/02/07 02:58:55;;;;;;;3.65;1.85;;;;;;;10.14;59.95;98923.84;10433291;28;20539;-59
2024/02/07 03:03:57;;;;;;;3.70;1.60;;;;;;;10.14;59.78;98913.41;10434333;28;20052;-59
2024/02/07 03:09:19;;;;;;;3.70;1.70;;;;;;;10.09;60.01;98920.75;10433596;28;20052;-59
2024/02/07 03:14:21;;;;;;;3.63;1.52;;;;;;;10.05;60.17;98908.03;10433991;28;20083;-59
2024/02/07 03:19:23;;;;;;;2.90;1.73;;;;;;;10.01;60.03;98899.56;10435203;28;20095;-59
2024/02/07 03:24:25;;;;;;;3.10;1.58;;;;;;;10.14;59.71;98899.50;10434192;28;20203;-59
2024/02/07 03:29:30;;;;;;;3.08;1.40;;;;;;;10.28;59.50;98894.91;10433095;28;20055;-59
2024/02/07 03:34:32;;;;;;;2.53;1.55;;;;;;;10.16;59.72;98884.53;10417243;28;20059;-59
2024/02/07 03:39:34;;;;;;;5.55;2.30;;;;;;;10.16;59.94;98868.88;10430613;28;20052;-59
2024/02/07 03:44:39;;;;;;;5.03;2.03;;;;;;;10.17;60.02;98865.31;10432499;28;20576;-59
2024/02/07 03:49:42;;;;;;;6.00;2.10;;;;;;;10.16;60.33;98869.69;10432220;28;20067;-59
2024/02/07 03:54:51;;;;;;;5.05;2.00;;;;;;;10.05;60.84;98843.56;10434634;28;20049;-59
2024/02/07 03:59:53;;;;;;;3.63;1.95;;;;;;;10.19;60.39;98839.91;10430552;28;20045;-59
2024/02/07 04:04:55;;;;;;;4.15;1.80;;;;;;;10.13;60.72;98842.97;10428561;28;20075;-59
2024/02/07 04:09:57;;;;;;;8.45;2.05;;;;;;;10.07;61.15;98825.16;10430406;28;20536;-60
2024/02/07 05:19:06;;;;;;;3.90;1.38;;;;;;;9.87;62.84;98750.09;10432433;28;20404;-60
2024/02/07 05:24:10;;;;;;;2.05;1.23;;;;;;;9.88;62.90;98749.13;10422706;28;20103;-60
2024/02/07 05:29:16;;;;;;;5.07;1.40;;;;;;;9.99;62.39;98733.47;10429376;28;20397;-60
2024/02/07 05:34:18;;;;;;;2.38;1.40;;;;;;;9.76;63.06;98740.44;10430019;28;20107;-59
2024/02/07 05:39:23;;;;;;;1.60;1.17;;;;;;;9.98;62.41;98735.25;10431227;28;20043;-59
2024/02/07 05:44:25;;;;;;;4.80;1.83;;;;;;;10.08;62.13;98743.22;10426827;28;20131;-60
2024/02/07 05:49:27;;;;;;;5.70;1.70;;;;;;;10.00;62.34;98727.28;10431777;28;20091;-60
2024/02/07 05:54:30;;;;;;;4.25;1.60;;;;;;;10.00;62.44;98737.75;10439215;28;20053;-59
2024/02/07 05:59:32;;;;;;;2.70;1.20;;;;;;;10.04;62.18;98731.34;10436837;28;20045;-60
2024/02/07 06:04:34;;;;;;;1.73;1.25;;;;;;;10.07;62.17;98733.72;10434796;28;20037;-59
2024/02/07 06:09:36;;;;;;;1.80;1.17;;;;;;;9.96;62.45;98733.69;10435995;28;20060;-59
2024/02/07 06:14:41;;;;;;;2.03;1.20;;;;;;;9.77;63.67;98725.63;10434691;28;20626;-59
2024/02/07 06:19:43;;;;;;;3.33;1.35;;;;;;;9.84;63.89;98726.81;10419379;28;20037;-59
2024/02/07 06:24:46;;;;;;;2.35;1.33;;;;;;;9.87;63.71;98732.63;10432567;28;20599;-60
2024/02/07 06:29:48;;;;;;;3.40;1.27;;;;;;;9.80;64.30;98730.59;10437354;28;20049;-59
2024/02/07 06:34:50;;;;;;;2.30;1.33;;;;;;;9.72;64.91;98719.91;10431164;28;20043;-59
2024/02/07 06:39:52;;;;;;;3.78;1.33;;;;;;;9.72;64.66;98712.06;10428900;28;20044;-60
2024/02/07 06:44:54;;;;;;;1.70;1.08;;;;;;;9.74;64.60;98718.00;10433286;28;20041;-60
2024/02/07 06:49:59;;;;;;;3.75;1.23;;;;;;;9.58;65.69;98716.50;10432401;28;20048;-59
2024/02/07 06:55:01;;;;;;;1.70;1.10;;;;;;;9.53;65.99;98691.69;10431592;28;20182;-60
2024/02/07 07:00:03;;;;;;;1.85;0.98;;;;;;;9.61;65.78;98703.22;10432992;28;20063;-59
2024/02/07 07:05:05;;;;;;;2.85;1.25;;;;;;;9.56;65.78;98705.34;10432423;28;20045;-59
2024/02/07 07:10:07;;;;;;;3.20;1.20;;;;;;;9.64;66.04;98697.78;10431552;28;20075;-59
2024/02/07 07:15:12;;;;;;;2.15;1.20;;;;;;;9.52;66.51;98703.09;10431304;28;20049;-60
2024/02/07 07:20:31;;;;;;;;;;;;;;;9.49;66.71;98698.94;10431901;28;20074;-60
2024/02/07 07:25:33;;;;;;;1.40;1.00;;;;;;;9.51;66.43;98689.22;10418300;28;20017;-60
2024/02/07 07:30:35;;;;;;;1.45;1.02;;;;;;;9.53;66.55;98689.91;10411157;28;20055;-60
2024/02/07 07:35:37;;;;;;;1.25;0.90;;;;;;;9.60;66.60;98687.69;10429398;28;20053;-59
2024/02/07 07:40:40;;;;;;;1.90;1.05;;;;;;;9.50;66.84;98684.91;10428008;28;20045;-59
2024/02/07 07:45:43;;;;;;;3.85;1.00;;;;;;;9.68;66.17;98674.91;10429188;28;20080;-59
2024/02/07 07:50:45;;;;;;;2.13;1.15;;;;;;;9.70;66.52;98674.78;10425574;28;20055;-60
2024/02/07 07:55:47;;;;;;;3.03;1.08;;;;;;;9.54;67.06;98681.13;10427593;28;20428;-60
2024/02/07 08:00:53;;;;;;;2.28;1.48;;;;;;;9.63;66.93;98685.69;10426549;28;20124;-59
2024/02/07 08:05:54;;;;;;;2.10;1.40;;;;;;;9.60;66.78;98683.31;10425983;28;20519;-60
2024/02/07 08:10:57;;;;;;;2.33;1.25;;;;;;;9.73;66.67;98672.78;10423362;28;20558;-59
2024/02/07 08:16:00;;;;;;;1.77;1.02;;;;;;;9.80;66.28;98689.66;10424110;28;20041;-60
2024/02/07 08:21:02;;;;;;;2.88;1.10;;;;;;;9.77;66.66;98694.28;10425826;28;20064;-60
2024/02/07 08:26:05;;;;;;;1.35;0.93;;;;;;;9.93;66.04;98692.97;10426264;28;20140;-59
2024/02/07 08:31:07;;;;;;;1.33;0.88;;;;;;;10.06;65.93;98695.47;10429192;28;20081;-60
2024/02/07 08:36:09;;;;;;;2.45;1.00;;;;;;;9.97;65.90;98690.97;10428274;28;20048;-59
2024/02/07 08:41:12;;;;;;;2.30;0.85;;;;;;;9.99;65.95;98692.50;10429484;28;20424;-59
2024/02/07 08:46:14;;;;;;;2.65;1.30;;;;;;;10.20;65.31;98692.63;10426329;28;20057;-59
2024/02/07 08:51:16;;;;;;;2.45;0.98;;;;;;;10.18;65.35;98697.97;10425542;28;20056;-60
2024/02/07 08:56:18;;;;;;;1.20;0.93;;;;;;;10.18;65.68;98702.38;10429364;28;20044;-60
2024/02/07 09:01:21;;;;;;;1.48;0.70;;;;;;;10.04;65.94;98700.81;10429523;28;20513;-60
2024/02/07 09:06:23;;;;;;;1.50;1.08;;;;;;;9.87;66.56;98705.69;10426611;28;20134;-59
2024/02/07 09:11:25;;;;;;;2.03;0.90;;;;;;;10.05;65.92;98712.13;10422730;28;20049;-59
2024/02/07 09:16:27;;;;;;;1.00;0.70;;;;;;;9.92;66.47;98706.16;10422270;28;20041;-59
2024/02/07 09:21:29;;;;;;;1.08;0.90;;;;;;;9.82;67.41;98729.53;10426768;28;20496;-59
2024/02/07 09:26:36;;;;;;;2.20;0.90;;;;;;;9.80;67.45;98725.38;10429801;28;20051;-59
2024/02/07 09:31:38;;;;;;;1.52;0.98;;;;;;;9.83;67.35;98725.97;10424987;28;20064;-59
2024/02/07 09:36:40;;;;;;;0.77;0.77;;;;;;;9.96;67.02;98721.47;10418329;28;20784;-59
2024/02/07 09:41:43;;;;;;;1.05;0.90;;;;;;;10.14;66.77;98719.22;10423466;28;20045;-59
2024/02/07 09:46:45;;;;;;;1.27;0.80;;;;;;;10.23;66.54;98726.38;10424535;28;20045;-59
2024/02/07 09:51:47;;;;;;;1.08;0.95;;;;;;;10.27;66.78;98719.97;10436892;28;20052;-59
2024/02/07 09:56:51;;;;;;;1.25;0.90;;;;;;;10.54;66.34;98717.81;10436946;28;20666;-59
2024/02/07 10:01:53;;;;;;;0.75;0.75;;;;;;;10.52;66.36;98718.88;10439337;28;20052;-59
2024/02/07 10:06:56;;;;;;;0.52;0.52;;;;;;;10.67;66.06;98725.50;10436049;28;20052;-59
2024/02/07 10:12:01;;;;;;;0.80;0.60;;;;;;;10.77;65.63;98727.28;10436290;28;20059;-59
2024/02/07 10:17:05;;;;;;;0.98;0.57;;;;;;;10.85;65.41;98722.25;10435532;28;20053;-58
2024/02/07 10:22:15;;;;;;;0.75;0.70;;;;;;;10.81;65.46;98723.44;10435487;28;20099;-59
2024/02/07 10:27:20;;;;;;;0.60;0.60;;;;;;;10.78;65.14;98731.56;10427770;28;20075;-59
2024/02/07 10:32:23;;;;;;;0.40;0.40;;;;;;;10.52;65.33;98736.22;10429444;28;20072;-59
2024/02/07 10:37:25;;;;;;;0.52;0.45;;;;;;;10.49;64.96;98741.69;10434688;28;20052;-59
2024/02/07 10:42:28;;;;;;;0.20;0.20;;;;;;;10.37;64.58;98742.66;10433904;28;20834;-59
2024/02/07 10:47:34;;;;;;;0.35;0.35;;;;;;;10.28;65.00;98742.50;10437982;28;20059;-59
2024/02/07 10:52:40;;;;;;;1.23;0.50;;;;;;;10.28;64.91;98743.34;10436321;28;20460;-59
2024/02/07 10:57:48;;;;;;;0.38;0.38;;;;;;;10.04;65.10;98741.78;10435911;28;20080;-60
2024/02/07 11:02:52;;;;;;;0.30;0.30;;;;;;;9.58;64.99;98742.59;10435211;28;20045;-60
2024/02/07 11:07:54;;;;;;;0.50;0.50;;;;;;;9.39;65.24;98742.31;10432824;28;20045;-59
2024/02/07 11:12:57;;;;;;;0.30;0.30;;;;;;;9.62;64.74;98733.63;10427571;28;20556;-59
2024/02/07 11:18:00;;;;;;;0.63;0.60;;;;;;;9.85;64.53;98737.13;10429694;28;20130;-60
2024/02/07 11:23:26;;;;;;;0.47;0.47;;;;;;;9.76;64.32;98729.16;10429634;28;20037;-59
2024/02/07 11:28:28;;;;;;;0.77;0.45;;;;;;;9.85;64.15;98723.25;10429554;28;20691;-59
2024/02/07 11:33:36;;;;;;;0.75;0.65;;;;;;;9.84;64.42;98732.03;10419045;28;20049;-60
2024/02/07 11:38:38;;;;;;;1.35;0.63;;;;;;;9.65;64.31;98738.59;10419281;28;20151;-60
2024/02/07 11:43:43;;;;;;;0.43;0.43;;;;;;;9.47;64.34;98739.13;10412726;28;20045;-59
2024/02/07 11:48:53;;;;;;;0.47;0.47;;;;;;;9.35;63.83;98740.88;10402095;28;20059;-60
2024/02/07 11:53:59;;;;;;;1.13;0.50;;;;;;;9.30;64.02;98735.16;10415781;28;20136;-60
2024/02/07 11:59:04;;;;;;;2.33;0.40;;;;;;;9.36;63.71;98746.94;10409076;28;20490;-60
2024/02/07 12:04:06;;;;;;;0.73;0.70;;;;;;;9.15;64.01;98751.09;10410893;28;20108;-60
2024/02/07 12:09:09;;;;;;;0.50;0.50;;;;;;;8.98;64.24;98743.66;10423328;28;20451;-60
2024/02/07 12:14:12;;;;;;;0.65;0.55;;;;;;;8.94;64.29;98745.66;10432390;28;20056;-60
2024/02/07 12:19:14;;;;;;;0.52;0.47;;;;;;;8.91;64.57;98755.47;10429902;28;20111;-60
2024/02/07 12:24:17;;;;;;;0.28;0.28;;;;;;;8.77;64.22;98769.50;10415136;28;20122;-60
2024/02/07 12:29:20;;;;;;;0.82;0.57;;;;;;;8.53;64.36;98777.25;10428147;28;20408;-60
2024/02/07 12:34:26;;;;;;;0.30;0.30;;;;;;;8.59;64.53;98787.25;10422470;28;20045;-60
2024/02/07 12:39:28;;;;;;;1.52;0.70;;;;;;;8.47;64.02;98803.72;10429033;28;20053;-60
2024/02/07 12:44:32;;;;;;;0.55;0.55;;;;;;;7.96;63.68;98815.03;10428098;28;20041;-60
2024/02/07 12:49:34;;;;;;;0.30;0.30;;;;;;;7.57;63.25;98820.28;10427915;28;20057;-60
2024/02/07 12:54:36;;;;;;;0.28;0.28;;;;;;;7.41;62.90;98816.97;10430113;28;20060;-60
2024/02/07 12:59:39;;;;;;;0.30;0.30;;;;;;;7.24;62.85;98825.88;10429611;28;20712;-59
2024/02/07 13:04:42;;;;;;;0.47;0.40;;;;;;;7.14;62.64;98832.59;10425200;28;20728;-60
2024/02/07 13:09:44;;;;;;;2.15;0.60;;;;;;;7.01;62.18;98836.88;10425158;28;20053;-59
2024/02/07 13:14:47;;;;;;;0.30;0.30;;;;;;;6.78;62.06;98850.47;10427608;28;20131;-59
2024/02/07 13:19:49;;;;;;;0.20;0.20;;;;;;;6.79;62.46;98852.16;10429228;28;20115;-59
2024/02/07 13:24:52;;;;;;;0.40;0.40;;;;;;;6.68;62.10;98854.56;10431307;28;20471;-59
2024/02/07 13:29:54;;;;;;;1.23;0.45;;;;;;;6.53;61.65;98851.13;10430969;28;20546;-59
2024/02/07 13:34:56;;;;;;;0.57;0.47;;;;;;;6.43;62.41;98857.78;10430813;28;20053;-59
2024/02/07 13:39:58;;;;;;;0.40;0.40;;;;;;;6.43;62.13;98860.38;10415171;28;20041;-60
2024/02/07 13:45:00;;;;;;;0.55;0.55;;;;;;;6.60;61.89;98861.97;10430128;28;20063;-60
2024/02/07 13:50:02;;;;;;;0.98;0.50;;;;;;;6.58;61.86;98859.47;10429129;28;20049;-60
2024/02/07 13:55:04;;;;;;;0.43;0.40;;;;;;;6.67;62.09;98851.16;10430335;28;20033;-60
2024/02/07 14:00:07;;;;;;;0.50;0.50;;;;;;;6.66;62.12;98853.81;10430914;28;20136;-60
2024/02/07 14:05:11;;;;;;;1.10;0.57;;;;;;;6.67;62.09;98858.09;10431535;28;20065;-59
2024/02/07 14:10:18;;;;;;;1.83;0.70;;;;;;;6.07;62.54;98854.75;10433945;28;20048;-60
2024/02/07 14:15:21;;;;;;;0.63;0.50;;;;;;;6.04;62.99;98854.94;10420943;28;20559;-59
2024/02/07 14:20:23;;;;;;;1.13;0.65;;;;;;;6.03;62.75;98841.13;10438926;28;20481;-59
2024/02/07 14:25:25;;;;;;;0.77;0.77;;;;;;;6.23;63.13;98835.59;10438796;28;20084;-60
2024/02/07 14:30:27;;;;;;;1.40;0.60;;;;;;;6.20;62.21;98819.38;10436841;28;20466;-60
2024/02/07 14:35:29;;;;;;;0.57;0.57;;;;;;;6.05;62.70;98813.31;10437926;28;20401;-59
2024/02/07 14:40:31;;;;;;;0.80;0.70;;;;;;;6.13;62.82;98821.47;10438436;28;20094;-60
2024/02/07 14:45:34;;;;;;;0.40;0.40;;;;;;;6.19;62.55;98813.34;10435415;28;20055;-59
2024/02/07 14:50:37;;;;;;;1.05;0.70;;;;;;;5.97;62.68;98822.47;10436450;28;20060;-59
2024/02/07 14:55:41;;;;;;;0.30;0.30;;;;;;;5.94;63.03;98815.69;10437136;28;20045;-59
2024/02/07 15:00:43;;;;;;;4.45;1.02;;;;;;;5.86;62.77;98810.13;10436670;28;20053;-60
2024/02/07 15:05:46;;;;;;;0.85;0.47;;;;;;;5.70;63.08;98824.91;10436087;28;20505;-60
2024/02/07 15:10:48;;;;;;;0.95;0.52;;;;;;;5.87;63.41;98832.56;10436115;28;20059;-60
2024/02/07 15:15:50;;;;;;;1.40;0.90;;;;;;;6.06;63.05;98820.16;10436412;28;20044;-60
2024/02/07 15:20:52;;;;;;;0.63;0.63;;;;;;;5.94;62.48;98839.03;10436702;28;20104;-60
2024/02/07 15:25:54;;;;;;;1.40;0.70;;;;;;;5.42;63.40;98832.59;10436362;28;20076;-60
2024/02/07 15:30:56;;;;;;;0.65;0.60;;;;;;;5.50;64.34;98812.25;10436237;28;20186;-60
2024/02/07 15:35:59;;;;;;;0.32;0.32;;;;;;;5.39;63.92;98812.84;10435596;28;20044;-60
2024/02/07 15:41:03;;;;;;;1.40;0.70;;;;;;;5.51;63.91;98790.59;10414185;28;20131;-60
2024/02/07 15:46:05;;;;;;;1.23;0.82;;;;;;;5.60;64.42;98790.03;10430767;28;20037;-60
2024/02/07 15:51:08;;;;;;;0.73;0.70;;;;;;;5.59;64.05;98793.56;10434200;28;20049;-60
2024/02/07 15:56:10;;;;;;;1.85;0.60;;;;;;;5.11;63.92;98809.28;10434294;28;20048;-60
2024/02/07 16:01:12;;;;;;;1.35;0.70;;;;;;;4.92;64.59;98790.50;10435247;28;20140;-60
2024/02/07 16:06:15;;;;;;;0.60;0.60;;;;;;;4.99;65.29;98790.06;10435175;28;20510;-60
2024/02/07 16:11:18;;;;;;;1.48;0.80;;;;;;;4.85;64.75;98810.72;10432611;28;20045;-60
2024/02/07 16:16:20;;;;;;;0.85;0.70;;;;;;;4.91;64.86;98794.00;10434255;28;20045;-60
2024/02/07 16:21:22;;;;;;;3.95;0.73;;;;;;;5.12;64.74;98792.81;10434438;28;20045;-60
2024/02/07 16:26:24;;;;;;;0.50;0.50;;;;;;;5.06;64.60;98799.19;10433709;28;20056;-60
2024/02/07 16:31:27;;;;;;;2.47;0.82;;;;;;;5.08;64.88;98789.59;10433598;28;20049;-60
2024/02/07 16:36:29;;;;;;;2.42;0.90;;;;;;;4.95;64.23;98791.16;10431712;28;20052;-60
2024/02/07 16:41:31;;;;;;;1.45;1.15;;;;;;;4.76;64.50;98790.47;10431559;28;20041;-60
2024/02/07 16:46:33;;;;;;;1.88;1.13;;;;;;;4.82;65.39;98799.69;10433381;28;20073;-60
2024/02/07 16:51:36;;;;;;;1.33;0.90;;;;;;;4.74;65.15;98796.69;10433826;28;20147;-60
2024/02/07 16:56:38;;;;;;;0.88;0.73;;;;;;;4.77;65.09;98797.34;10432510;28;20052;-60
2024/02/07 17:01:41;;;;;;;1.77;1.08;;;;;;;4.61;65.45;98802.53;10432982;28;20049;-60
2024/02/07 17:06:45;;;;;;;1.92;1.20;;;;;;;4.42;65.76;98811.34;10433098;28;20049;-60
2024/02/07 17:11:47;;;;;;;1.40;0.82;;;;;;;4.48;66.09;98811.84;10431275;28;20056;-59
2024/02/07 17:16:49;;;;;;;1.90;0.95;;;;;;;4.74;65.29;98801.88;10432867;28;21140;-60
2024/02/07 17:21:51;;;;;;;0.93;0.80;;;;;;;4.56;65.45;98801.94;10432802;28;20041;-60
2024/02/07 17:26:53;;;;;;;1.13;1.00;;;;;;;4.59;65.56;98817.31;10431997;28;20045;-60
2024/02/07 17:31:56;;;;;;;1.17;0.85;;;;;;;4.50;65.37;98822.13;10432053;28;20080;-60
2024/02/07 17:36:58;;;;;;;1.35;1.00;;;;;;;4.58;65.54;98801.84;10431088;28;20136;-60
2024/02/07 17:42:00;;;;;;;1.48;1.00;;;;;;;4.45;65.19;98801.69;10432467;28;20510;-60
2024/02/07 17:47:03;;;;;;;1.73;0.93;;;;;;;4.46;65.32;98784.38;10439016;28;20122;-60
2024/02/07 17:52:05;;;;;;;1.75;1.20;;;;;;;4.08;65.74;98788.13;10439229;28;20136;-60
2024/02/07 17:57:07;;;;;;;1.85;1.15;;;;;;;4.05;66.24;98806.41;10430374;28;20048;-60
2024/02/07 18:02:10;;;;;;;1.10;1.00;;;;;;;4.14;65.99;98805.94;10436547;28;20123;-60
2024/02/07 18:07:12;;;;;;;2.80;1.30;;;;;;;4.15;65.89;98790.31;10437912;28;20971;-60
2024/02/07 18:12:15;;;;;;;1.20;1.00;;;;;;;4.37;66.20;98780.50;10436315;28;20079;-61
2024/02/07 18:17:18;;;;;;;1.10;1.00;;;;;;;4.37;65.89;98777.91;10404632;28;20044;-61
2024/02/07 18:22:20;;;;;;;1.58;1.00;;;;;;;4.43;65.70;98787.94;10436671;28;20075;-61
2024/02/07 18:27:22;;;;;;;1.77;1.05;;;;;;;4.31;65.29;98773.06;10435065;28;20056;-61
2024/02/07 18:32:25;;;;;;;1.00;0.90;;;;;;;4.39;65.73;98755.38;10436149;28;20041;-60
2024/02/07 18:37:27;;;;;;;1.27;1.00;;;;;;;4.52;65.27;98755.56;10434862;28;20049;-61
2024/02/07 18:42:29;;;;;;;1.35;0.90;;;;;;;4.38;65.88;98758.91;10435928;28;20045;-61
2024/02/07 18:47:31;;;;;;;1.48;0.93;;;;;;;4.22;65.49;98747.69;10435166;28;20044;-61
2024/02/07 18:52:38;;;;;;;2.03;0.93;;;;;;;4.10;66.26;98745.75;10436589;28;20079;-61
2024/02/07 18:57:41;;;;;;;1.02;0.93;;;;;;;4.13;66.21;98742.97;10433878;28;20053;-60
2024/02/07 19:02:43;;;;;;;1.63;1.10;;;;;;;4.15;65.93;98728.22;10418969;28;20045;-61
2024/02/07 19:07:46;;;;;;;1.25;1.05;;;;;;;4.05;66.17;98731.38;10422256;28;20143;-60
2024/02/07 19:12:50;;;;;;;1.40;0.80;;;;;;;4.02;66.21;98724.63;10435880;28;20049;-61
2024/02/07 19:17:56;;;;;;;0.70;0.70;;;;;;;3.98;66.04;98733.47;10435736;28;20037;-60
2024/02/07 19:22:59;;;;;;;2.95;1.05;;;;;;;3.93;66.12;98735.44;10435914;28;20520;-61
2024/02/07 19:28:04;;;;;;;0.85;0.85;;;;;;;4.02;66.39;98723.78;10433549;28;20065;-61
2024/02/07 19:33:08;;;;;;;1.30;0.80;;;;;;;3.96;66.09;98709.41;10434043;28;20045;-61
2024/02/07 19:38:11;;;;;;;0.95;0.90;;;;;;;3.77;66.10;98701.75;10432131;28;20048;-60
2024/02/07 19:43:16;;;;;;;2.83;0.95;;;;;;;3.73;66.46;98707.16;10426177;28;20048;-61
2024/02/07 19:48:19;;;;;;;0.90;0.88;;;;;;;3.73;66.57;98707.16;10426462;28;20056;-60
2024/02/07 19:53:21;;;;;;;1.60;1.25;;;;;;;3.74;66.53;98708.84;10426173;28;20045;-61
2024/02/07 19:58:23;;;;;;;0.63;0.63;;;;;;;3.85;66.53;98701.38;10433235;28;20049;-61
2024/02/07 20:03:30;;;;;;;2.17;0.95;;;;;;;3.84;66.27;98704.88;10428614;28;20051;-61
2024/02/07 20:08:33;;;;;;;2.03;1.10;;;;;;;3.74;66.39;98706.25;10428878;28;20497;-60
2024/02/07 20:13:35;;;;;;;1.67;0.90;;;;;;;3.48;66.71;98704.13;10428400;28;20045;-61
2024/02/07 20:18:37;;;;;;;2.25;1.50;;;;;;;3.44;67.03;98705.19;10418926;28;20084;-61
2024/02/07 20:23:39;;;;;;;2.00;1.15;;;;;;;3.46;66.97;98704.22;10430517;28;20059;-61
2024/02/07 20:28:41;;;;;;;2.20;1.50;;;;;;;3.21;68.16;98703.78;10434763;28;20095;-61
2024/02/07 20:33:43;;;;;;;1.98;1.30;;;;;;;3.33;67.74;98713.50;10433407;28;20055;-61
2024/02/07 20:38:46;;;;;;;4.45;1.50;;;;;;;3.16;67.73;98692.00;10433660;28;20060;-60
2024/02/07 20:43:48;;;;;;;1.58;1.15;;;;;;;3.14;67.94;98686.91;10430447;28;20045;-61
2024/02/07 20:48:50;;;;;;;2.70;1.40;;;;;;;3.12;68.56;98682.72;10424261;28;20135;-61
2024/02/07 20:53:57;;;;;;;2.88;1.50;;;;;;;2.96;68.73;98683.50;10428139;28;20076;-61
2024/02/07 20:58:59;;;;;;;1.98;1.30;;;;;;;3.07;68.60;98687.28;10427378;28;20279;-61
2024/02/07 21:04:01;;;;;;;2.72;1.30;;;;;;;3.00;68.62;98689.34;10430027;28;20108;-61
2024/02/07 21:09:06;;;;;;;2.33;1.13;;;;;;;3.01;68.69;98671.16;10430517;28;20072;-61
2024/02/07 21:14:08;;;;;;;2.13;1.10;;;;;;;3.00;68.59;98669.50;10430716;28;20076;-61
2024/02/07 21:19:10;;;;;;;3.60;1.50;;;;;;;3.01;68.48;98660.84;10433069;28;20036;-61
2024/02/07 21:24:12;;;;;;;2.85;1.73;;;;;;;2.96;68.70;98664.56;10438648;28;20489;-61
2024/02/07 21:29:14;;;;;;;1.98;1.20;;;;;;;2.90;68.76;98667.44;10433430;28;20123;-60
2024/02/07 21:34:16;;;;;;;1.80;1.20;;;;;;;3.05;68.60;98661.50;10437797;28;20056;-60
2024/02/07 21:39:19;;;;;;;1.33;1.15;;;;;;;3.07;68.71;98662.28;10438794;28;20056;-61
2024/02/07 21:44:21;;;;;;;2.90;1.27;;;;;;;3.00;69.04;98656.59;10438330;28;20493;-60
2024/02/07 21:49:25;;;;;;;3.78;1.30;;;;;;;3.01;68.64;98672.91;10437547;28;20416;-61
2024/02/07 21:54:28;;;;;;;1.38;1.15;;;;;;;3.02;68.60;98667.69;10437506;28;20053;-60
2024/02/07 21:59:30;;;;;;;1.55;0.95;;;;;;;2.99;68.55;98665.25;10437054;28;20077;-60
2024/02/07 22:04:32;;;;;;;2.10;0.98;;;;;;;2.94;68.80;98661.22;10436564;28;20055;-61
2024/02/07 22:09:34;;;;;;;2.10;1.13;;;;;;;2.95;68.95;98666.31;10437008;28;20179;-60
2024/02/07 22:14:36;;;;;;;2.15;1.30;;;;;;;3.04;69.05;98650.38;10436505;28;20426;-60
2024/02/07 22:19:41;;;;;;;2.72;1.70;;;;;;;3.15;68.71;98646.41;10436836;28;20627;-61
2024/02/07 22:24:44;;;;;;;1.55;1.10;;;;;;;3.15;69.33;98656.75;10436681;28;20624;-61
2024/02/07 22:29:46;;;;;;;2.17;1.58;;;;;;;3.28;68.59;98644.88;10435466;28;20465;-60
2024/02/07 22:34:48;;;;;;;2.15;1.48;;;;;;;3.30;68.50;98638.72;10434717;28;20052;-60
2024/02/07 22:39:53;;;;;;;2.20;1.50;;;;;;;3.20;68.43;98639.25;10436554;28;20053;-61
2024/02/07 22:44:55;;;;;;;1.45;1.30;;;;;;;3.28;68.24;98631.94;10437972;28;20059;-60
2024/02/07 22:49:58;;;;;;;2.25;1.20;;;;;;;3.43;68.31;98634.59;10436442;28;20053;-60
2024/02/07 22:55:00;;;;;;;2.72;1.38;;;;;;;3.38;68.11;98633.16;10437303;28;20127;-61
2024/02/07 23:00:03;;;;;;;1.95;1.10;;;;;;;3.41;68.30;98627.84;10436424;28;20045;-60
2024/02/07 23:05:06;;;;;;;2.53;1.45;;;;;;;3.34;68.23;98624.72;10436423;28;20136;-61
2024/02/07 23:10:08;;;;;;;2.25;1.40;;;;;;;3.40;68.20;98624.41;10434175;28;20045;-60
2024/02/07 23:15:10;;;;;;;3.38;1.38;;;;;;;3.52;68.08;98617.75;10435472;28;20051;-61
2024/02/07 23:20:12;;;;;;;1.70;1.30;;;;;;;3.47;67.83;98612.00;10430156;28;20133;-60
2024/02/07 23:25:17;;;;;;;1.90;1.23;;;;;;;3.69;67.69;98605.66;10436905;28;20101;-59
2024/02/07 23:30:19;;;;;;;1.65;1.30;;;;;;;3.68;67.84;98614.31;10436021;28;20051;-60
2024/02/07 23:35:21;;;;;;;2.75;2.05;;;;;;;3.61;67.61;98614.72;10436277;28;20535;-60
2024/02/07 23:40:23;;;;;;;2.72;1.40;;;;;;;3.62;67.77;98609.44;10435384;28;20428;-60
2024/02/07 23:45:25;;;;;;;2.53;1.40;;;;;;;3.60;67.59;98611.28;10435993;28;20057;-60
2024/02/07 23:50:27;;;;;;;1.45;1.17;;;;;;;3.62;67.54;98613.81;10435519;28;20154;-60
2024/02/07 23:55:29;;;;;;;1.60;1.15;;;;;;;3.51;67.58;98614.38;10435449;28;20126;-60
